Terminal Aerodrome Forecast
Issued by NWS Tampa Bay Area, FL

Home | Current Version | Previous Version | Text Only | Print | Product List | Glossary On
Versions: 1 2 3 4 5 6 7 8 9 10 11 12 13
830
FTUS42 KTBW 230535
TAFSRQ
TAF
KSRQ 230535Z 2306/2406 06004KT P6SM SCT025 SCT250
     FM231400 07008KT P6SM SCT025 BKN250
     FM231800 08008KT P6SM VCTS BKN035CB
     FM240100 06008KT P6SM SCT050=

USA.gov is the U.S. government's official web portal to all federal, state and local government web resources and services.